Terminal Aerodrome Forecast
Issued by NWS Shreveport, LA

Home | Current Version | Previous Version | Text Only | Print | Product List | Glossary On
Versions: 1 2 3 4 5 6 7 8 9 10 11 12 13 14 15
000
FTUS44 KSHV 271147
TAFTYR
TAF
KTYR 271147Z 2712/2812 22007KT P6SM SCT080 SCT280
     FM271500 22010KT P6SM SCT025 SCT100 SCT300
     FM271700 22010KT P6SM SCT040 SCT300
     FM280100 18008KT P6SM BKN250=

USA.gov is the U.S. government's official web portal to all federal, state and local government web resources and services.